aviador You're here:

KPGV Decoded Metar

PITT GREENVILLE in NC, USA
Report Time2018-05-28 07:45:00
UTC Time2018-05-28 07:48:21
Flight Rules vfr VFR
WindCalm
Visibility9999 m
Phenomena:N/A
Clouds:N/A
CeilingNone
Temp22°C (ISA +7)
Dew Point22°C (100% RH)
QNH1017 hPa
Density Alt1,060 ft
Elevation26 ft
Report Wrong Elevation
Raw Report
KPGV 280745Z AUTO 00000KT 7SM CLR 22/22 A3004 RMK AO2=

Extra information for KPGV:More info

Metar Taf Metar & Taf Last 4 Metars F.Rules Stats Wind Profile Meteogram Temp Stats Airport Information Weather charts Add Link Nearby VenuesMetar ALERT Operation Metar Decoded Social comments

AIRNAV info for KPGV